createdAt,value
2019-06-01T00:02:20.369Z,58.30
2019-06-01T00:04:50.743Z,58.30
2019-06-01T00:07:20.834Z,58.40
2019-06-01T00:09:52.067Z,58.30
2019-06-01T00:12:22.143Z,58.50
2019-06-01T00:14:52.999Z,58.40
2019-06-01T00:17:23.046Z,58.40
2019-06-01T00:19:53.466Z,58.50
2019-06-01T00:22:23.498Z,58.50
2019-06-01T00:24:53.631Z,58.30
2019-06-01T00:27:23.715Z,58.30
2019-06-01T00:29:53.811Z,58.30
2019-06-01T00:32:24.458Z,58.20
2019-06-01T00:34:54.497Z,58.20
2019-06-01T00:37:24.598Z,58.20
2019-06-01T00:39:54.804Z,58.10
2019-06-01T00:42:25.241Z,58.00
2019-06-01T00:44:55.680Z,57.90
2019-06-01T00:47:25.999Z,57.90
2019-06-01T00:49:56.401Z,57.90
2019-06-01T00:52:26.521Z,58.20
2019-06-01T00:54:56.645Z,58.50
2019-06-01T00:57:26.674Z,58.50
2019-06-01T00:59:57.086Z,58.40
2019-06-01T01:02:27.105Z,58.20
2019-06-01T01:05:15.890Z,58.00
2019-06-01T01:07:46.621Z,57.90
2019-06-01T01:10:17.857Z,58.10
2019-06-01T01:13:04.828Z,58.30
2019-06-01T01:15:35.631Z,58.30
2019-06-01T01:18:06.839Z,58.20
2019-06-01T01:20:37.506Z,58.10
2019-06-01T01:23:08.349Z,58.10
2019-06-01T01:25:38.495Z,58.00
2019-06-01T01:28:08.553Z,58.00
2019-06-01T01:30:38.674Z,58.00
2019-06-01T01:33:08.731Z,57.90
2019-06-01T01:35:39.112Z,57.80
2019-06-01T01:38:09.534Z,57.80
2019-06-01T01:40:39.641Z,57.80
2019-06-01T01:43:09.688Z,57.80
2019-06-01T01:45:40.174Z,57.80
2019-06-01T01:48:10.268Z,57.80
2019-06-01T01:50:40.326Z,57.80
2019-06-01T01:53:10.588Z,57.80
2019-06-01T01:55:40.615Z,57.70
2019-06-01T01:58:11.013Z,57.60
2019-06-01T02:00:43.646Z,57.60
2019-06-01T02:03:13.681Z,57.70
2019-06-01T02:05:43.710Z,57.70
2019-06-01T02:08:14.427Z,57.80
2019-06-01T02:10:44.468Z,57.80
2019-06-01T02:13:14.498Z,58.30
2019-06-01T02:15:44.587Z,57.60
2019-06-01T02:18:14.812Z,57.50
2019-06-01T02:20:45.242Z,57.40
2019-06-01T02:23:15.275Z,57.50
2019-06-01T02:25:45.514Z,57.40
2019-06-01T02:28:15.550Z,57.30
2019-06-01T02:30:46.160Z,57.20
2019-06-01T02:33:16.973Z,57.30
2019-06-01T02:35:48.074Z,57.20
2019-06-01T02:38:18.121Z,57.30
2019-06-01T02:40:48.610Z,57.20
2019-06-01T02:43:19.184Z,57.20
2019-06-01T02:45:49.657Z,57.30
2019-06-01T02:48:20.069Z,57.20
2019-06-01T02:50:50.455Z,57.20
2019-06-01T02:53:20.484Z,57.20
2019-06-01T02:55:50.614Z,57.20
2019-06-01T02:58:20.660Z,57.10
2019-06-01T03:01:22.210Z,57.10
2019-06-01T03:03:54.489Z,57.10
2019-06-01T03:06:26.585Z,57.30
2019-06-01T03:09:01.839Z,57.50
2019-06-01T03:11:36.461Z,57.40
2019-06-01T03:14:08.938Z,57.60
2019-06-01T03:16:40.652Z,57.40
2019-06-01T03:19:11.986Z,57.40
2019-06-01T03:21:45.581Z,57.30
2019-06-01T03:24:15.980Z,57.30
2019-06-01T03:26:47.518Z,57.30
2019-06-01T03:29:20.109Z,57.40
2019-06-01T03:31:50.225Z,57.40
2019-06-01T03:34:20.424Z,57.60
2019-06-01T03:36:50.518Z,57.60
2019-06-01T03:39:20.630Z,57.50
2019-06-01T03:41:51.425Z,57.50
2019-06-01T03:44:21.512Z,57.40
2019-06-01T03:46:51.556Z,57.40
2019-06-01T03:49:21.666Z,57.50
2019-06-01T03:51:51.785Z,57.60
2019-06-01T03:54:22.219Z,57.60
2019-06-01T03:56:52.330Z,57.70
2019-06-01T03:59:22.450Z,57.80
2019-06-01T04:01:52.775Z,57.90
2019-06-01T04:04:22.831Z,58.10
2019-06-01T04:06:53.590Z,58.20
2019-06-01T04:09:23.726Z,58.80
2019-06-01T04:11:53.833Z,58.20
2019-06-01T04:14:23.856Z,58.20
2019-06-01T04:16:54.067Z,58.30
2019-06-01T04:19:24.111Z,58.50
2019-06-01T04:21:54.136Z,58.50
2019-06-01T04:24:24.230Z,58.60
2019-06-01T04:26:54.748Z,59.10
2019-06-01T04:29:24.785Z,59.20
2019-06-01T04:31:54.793Z,59.20
2019-06-01T04:34:24.913Z,59.30
2019-06-01T04:36:54.918Z,59.60
2019-06-01T04:39:25.054Z,59.60
2019-06-01T04:41:55.143Z,59.50
2019-06-01T04:44:25.259Z,59.80
2019-06-01T04:46:55.284Z,59.40
2019-06-01T04:49:25.329Z,59.80
2019-06-01T04:51:55.433Z,60.00
2019-06-01T04:54:25.552Z,60.20
2019-06-01T04:56:55.894Z,60.40
2019-06-01T04:59:26.325Z,60.30
2019-06-01T05:01:56.835Z,60.70
2019-06-01T05:04:26.929Z,61.00
2019-06-01T05:06:57.041Z,61.50
2019-06-01T05:09:27.159Z,61.50
2019-06-01T05:11:57.186Z,61.10
2019-06-01T05:14:27.637Z,61.00
2019-06-01T05:16:57.653Z,61.10
2019-06-01T05:19:28.102Z,61.30
2019-06-01T05:21:58.183Z,60.80
2019-06-01T05:24:28.237Z,61.10
2019-06-01T05:26:58.252Z,60.90
2019-06-01T05:29:28.324Z,61.30
2019-06-01T05:31:58.345Z,60.90
2019-06-01T05:34:28.475Z,60.10
2019-06-01T05:36:58.509Z,60.00
2019-06-01T05:39:28.561Z,59.50
2019-06-01T05:42:04.067Z,59.30
2019-06-01T05:44:34.109Z,58.90
2019-06-01T05:47:04.160Z,59.80
2019-06-01T05:49:34.214Z,59.10
2019-06-01T05:52:04.285Z,59.10
2019-06-01T05:54:34.297Z,59.30
2019-06-01T05:57:04.374Z,59.20
2019-06-01T05:59:34.473Z,59.20
2019-06-01T06:02:04.517Z,59.10
2019-06-01T06:04:34.649Z,58.60
2019-06-01T06:07:04.805Z,58.40
2019-06-01T06:09:34.912Z,58.20
2019-06-01T06:12:05.089Z,58.10
2019-06-01T06:14:35.109Z,58.30
2019-06-01T06:17:05.163Z,58.50
2019-06-01T06:19:35.182Z,59.70
2019-06-01T06:22:05.570Z,58.50
2019-06-01T06:24:35.686Z,59.00
2019-06-01T06:27:05.771Z,58.30
2019-06-01T06:29:35.805Z,57.50
2019-06-01T06:32:09.116Z,57.40
2019-06-01T06:34:37.564Z,57.70
2019-06-01T06:37:07.682Z,58.00
2019-06-01T06:39:37.771Z,58.10
2019-06-01T06:42:07.891Z,58.00
2019-06-01T06:44:37.935Z,58.20
2019-06-01T06:47:07.949Z,59.30
2019-06-01T06:49:38.501Z,58.30
2019-06-01T06:52:08.659Z,57.60
2019-06-01T06:54:38.692Z,57.40
2019-06-01T06:57:08.801Z,57.60
2019-06-01T06:59:39.316Z,58.10
2019-06-01T07:02:09.815Z,57.80
2019-06-01T07:04:40.394Z,57.50
2019-06-01T07:07:10.805Z,57.20
2019-06-01T07:09:41.076Z,56.50
2019-06-01T07:12:11.133Z,57.00
2019-06-01T07:14:41.275Z,56.80
2019-06-01T07:17:11.389Z,56.80
2019-06-01T07:19:41.549Z,56.20
2019-06-01T07:22:11.719Z,56.80
2019-06-01T07:24:41.772Z,58.80
2019-06-01T07:27:11.878Z,57.10
2019-06-01T07:29:43.061Z,57.40
2019-06-01T07:32:13.215Z,56.60
2019-06-01T07:34:44.140Z,58.40
2019-06-01T07:37:14.197Z,57.60
2019-06-01T07:39:44.281Z,58.30
2019-06-01T07:42:14.388Z,58.70
2019-06-01T07:44:44.868Z,58.20
2019-06-01T07:47:15.196Z,57.20
2019-06-01T07:49:45.379Z,55.90
2019-06-01T07:52:15.438Z,56.00
2019-06-01T07:54:45.659Z,56.50
2019-06-01T07:57:15.826Z,56.90
2019-06-01T07:59:45.893Z,55.80
2019-06-01T08:02:16.021Z,57.60
2019-06-01T08:04:53.565Z,55.50
2019-06-01T08:07:17.932Z,56.60
2019-06-01T08:09:48.209Z,56.60
2019-06-01T08:12:18.848Z,57.00
2019-06-01T08:14:49.236Z,58.40
2019-06-01T08:17:19.398Z,58.20
2019-06-01T08:19:52.013Z,55.90
2019-06-01T08:22:23.771Z,55.00
2019-06-01T08:24:54.065Z,55.50
2019-06-01T08:27:24.405Z,55.70
2019-06-01T08:29:54.757Z,55.20
2019-06-01T08:32:24.816Z,56.70
2019-06-01T08:35:07.979Z,56.00
2019-06-01T08:37:29.303Z,56.60
2019-06-01T08:39:59.566Z,55.30
2019-06-01T08:42:29.798Z,56.20
2019-06-01T08:44:59.952Z,57.30
2019-06-01T08:47:30.270Z,55.90
2019-06-01T08:50:00.878Z,55.90
2019-06-01T08:52:32.179Z,56.60
2019-06-01T08:55:02.762Z,56.40
2019-06-01T08:57:34.573Z,57.60
2019-06-01T09:00:05.423Z,59.10
2019-06-01T09:02:35.928Z,60.10
2019-06-01T09:05:21.284Z,60.40
2019-06-01T09:07:39.780Z,59.20
2019-06-01T09:10:10.363Z,59.00
2019-06-01T09:12:40.757Z,58.40
2019-06-01T09:15:14.165Z,57.90
2019-06-01T09:17:44.447Z,57.30
2019-06-01T09:20:18.542Z,57.20
2019-06-01T09:22:49.998Z,57.70
2019-06-01T09:25:23.851Z,57.20
2019-06-01T09:27:54.315Z,57.90
2019-06-01T09:30:25.875Z,57.10
2019-06-01T09:32:56.495Z,57.20
2019-06-01T09:35:45.285Z,57.60
2019-06-01T09:37:58.794Z,57.10
2019-06-01T09:40:30.394Z,56.40
2019-06-01T09:43:01.394Z,56.80
2019-06-01T09:45:32.822Z,54.50
2019-06-01T09:48:03.496Z,55.20
2019-06-01T09:50:33.759Z,54.70
2019-06-01T09:53:04.482Z,55.50
2019-06-01T09:55:36.320Z,55.30
2019-06-01T09:58:06.708Z,56.70
2019-06-01T10:00:41.489Z,56.10
2019-06-01T10:03:09.301Z,56.40
2019-06-01T10:05:39.857Z,57.40
2019-06-01T10:08:10.396Z,57.20
2019-06-01T10:10:42.173Z,56.50
2019-06-01T10:13:12.637Z,55.80
2019-06-01T10:15:43.023Z,55.50
2019-06-01T10:18:13.209Z,56.90
2019-06-01T10:20:43.477Z,54.50
2019-06-01T10:23:13.677Z,54.50
2019-06-01T10:25:43.971Z,52.50
2019-06-01T10:28:14.135Z,53.80
2019-06-01T10:30:44.493Z,53.20
2019-06-01T10:33:14.711Z,54.50
2019-06-01T10:35:44.916Z,55.20
2019-06-01T10:38:15.063Z,55.30
2019-06-01T10:40:45.409Z,54.50
2019-06-01T10:43:15.698Z,54.20
2019-06-01T10:45:45.934Z,55.30
2019-06-01T10:48:16.418Z,54.20
2019-06-01T10:50:46.790Z,53.10
2019-06-01T10:53:16.976Z,50.60
2019-06-01T10:55:47.423Z,52.30
2019-06-01T10:58:17.770Z,52.30
2019-06-01T11:00:51.068Z,51.70
2019-06-01T11:03:19.912Z,54.70
2019-06-01T11:05:51.099Z,55.20
2019-06-01T11:08:21.202Z,53.50
2019-06-01T11:10:51.580Z,55.20
2019-06-01T11:13:21.634Z,53.30
2019-06-01T11:15:51.721Z,53.20
2019-06-01T11:18:21.784Z,52.10
2019-06-01T11:20:53.045Z,53.30
2019-06-01T11:23:23.102Z,51.60
2019-06-01T11:25:53.226Z,52.70
2019-06-01T11:28:23.276Z,52.10
2019-06-01T11:30:53.303Z,49.60
2019-06-01T11:33:23.345Z,51.30
2019-06-01T11:35:53.478Z,52.40
2019-06-01T11:38:23.565Z,51.60
2019-06-01T11:40:53.719Z,51.10
2019-06-01T11:43:23.788Z,53.30
2019-06-01T11:45:54.845Z,53.60
2019-06-01T11:48:25.363Z,51.80
2019-06-01T11:50:55.381Z,51.30
2019-06-01T11:53:25.986Z,51.90
2019-06-01T11:55:57.576Z,51.40
2019-06-01T11:58:27.707Z,50.20
2019-06-01T12:00:57.732Z,49.40
2019-06-01T12:03:27.875Z,50.40
2019-06-01T12:05:57.979Z,50.90
2019-06-01T12:08:28.058Z,49.00
2019-06-01T12:10:58.089Z,50.10
2019-06-01T12:13:28.143Z,51.70
2019-06-01T12:15:58.281Z,49.30
2019-06-01T12:18:28.927Z,49.50
2019-06-01T12:20:59.045Z,50.00
2019-06-01T12:23:30.623Z,49.80
2019-06-01T12:26:01.035Z,49.30
2019-06-01T12:28:31.069Z,50.10
2019-06-01T12:31:01.195Z,50.00
2019-06-01T12:33:31.337Z,50.20
2019-06-01T12:36:01.363Z,48.50
2019-06-01T12:38:34.841Z,47.70
2019-06-01T12:41:05.240Z,49.80
2019-06-01T12:43:35.283Z,49.20
2019-06-01T12:46:07.661Z,48.30
2019-06-01T12:48:37.161Z,47.80
2019-06-01T12:51:07.291Z,49.60
2019-06-01T12:53:37.324Z,49.80
2019-06-01T12:56:08.033Z,47.20
2019-06-01T12:58:38.152Z,46.50
2019-06-01T13:01:08.340Z,47.10
2019-06-01T13:03:38.363Z,46.20
2019-06-01T13:06:08.485Z,45.10
2019-06-01T13:08:38.874Z,45.90
2019-06-01T13:11:09.313Z,46.70
2019-06-01T13:13:39.407Z,46.50
2019-06-01T13:16:09.545Z,45.80
2019-06-01T13:18:45.787Z,46.60
2019-06-01T13:21:16.175Z,47.60
2019-06-01T13:23:47.502Z,46.90
2019-06-01T13:26:17.948Z,47.20
2019-06-01T13:28:48.312Z,45.40
2019-06-01T13:31:18.524Z,45.40
2019-06-01T13:33:50.714Z,46.70
2019-06-01T13:36:20.339Z,46.90
2019-06-01T13:38:51.151Z,47.40
2019-06-01T13:41:21.246Z,48.30
2019-06-01T13:43:51.478Z,46.70
2019-06-01T13:46:21.733Z,47.10
2019-06-01T13:48:52.675Z,47.20
2019-06-01T13:51:24.034Z,48.80
2019-06-01T13:53:54.678Z,49.60
2019-06-01T13:56:24.807Z,49.90
2019-06-01T13:58:55.231Z,49.40
2019-06-01T14:01:25.635Z,47.80
2019-06-01T14:03:55.801Z,48.40
2019-06-01T14:06:26.227Z,49.40
2019-06-01T14:08:56.431Z,49.30
2019-06-01T14:11:26.567Z,49.30
2019-06-01T14:13:56.615Z,48.40
2019-06-01T14:16:28.696Z,48.40
2019-06-01T14:18:58.709Z,48.50
2019-06-01T14:21:28.820Z,49.40
2019-06-01T14:24:00.069Z,49.00
2019-06-01T14:26:30.342Z,48.70
2019-06-01T14:29:00.683Z,49.00
2019-06-01T14:31:31.335Z,48.00
2019-06-01T14:34:01.851Z,47.90
2019-06-01T14:36:32.578Z,48.90
2019-06-01T14:39:03.101Z,48.90
2019-06-01T14:41:33.668Z,49.30
2019-06-01T14:44:03.826Z,49.70
2019-06-01T14:46:34.647Z,49.80
2019-06-01T14:49:04.890Z,49.00
2019-06-01T14:51:35.080Z,50.00
2019-06-01T14:54:06.644Z,48.00
2019-06-01T14:56:37.089Z,49.50
2019-06-01T14:59:07.220Z,48.90
2019-06-01T15:01:37.473Z,48.70
2019-06-01T15:04:07.703Z,47.90
2019-06-01T15:06:39.464Z,47.20
2019-06-01T15:09:18.364Z,47.30
2019-06-01T15:11:41.828Z,47.20
2019-06-01T15:14:11.900Z,48.10
2019-06-01T15:16:42.198Z,48.20
2019-06-01T15:19:12.426Z,48.70
2019-06-01T15:21:42.461Z,48.70
2019-06-01T15:24:12.843Z,48.60
2019-06-01T15:26:43.063Z,48.10
2019-06-01T15:29:24.859Z,47.90
2019-06-01T15:31:55.915Z,47.80
2019-06-01T15:34:26.285Z,48.60
2019-06-01T15:36:57.639Z,48.40
2019-06-01T15:39:28.164Z,48.50
2019-06-01T15:41:59.158Z,49.00
2019-06-01T15:44:29.540Z,48.40
2019-06-01T15:46:59.905Z,49.30
2019-06-01T15:49:30.164Z,48.80
2019-06-01T15:52:00.390Z,48.60
2019-06-01T15:54:30.597Z,48.40
2019-06-01T15:57:00.980Z,48.20
2019-06-01T15:59:31.188Z,47.70
2019-06-01T16:02:01.405Z,47.30
2019-06-01T16:04:31.554Z,47.30
2019-06-01T16:07:03.373Z,47.70
2019-06-01T16:09:42.806Z,48.30
2019-06-01T16:12:05.782Z,47.90
2019-06-01T16:14:35.826Z,48.40
2019-06-01T16:17:06.474Z,49.00
2019-06-01T16:19:36.607Z,48.70
2019-06-01T16:22:06.666Z,48.40
2019-06-01T16:24:38.622Z,48.20
2019-06-01T16:27:09.826Z,49.00
2019-06-01T16:29:40.325Z,48.50
2019-06-01T16:32:10.398Z,49.10
2019-06-01T16:34:40.457Z,49.20
2019-06-01T16:37:10.884Z,49.50
2019-06-01T16:39:41.126Z,48.90
2019-06-01T16:42:11.360Z,49.60
2019-06-01T16:44:41.508Z,48.80
2019-06-01T16:47:11.532Z,48.40
2019-06-01T16:49:41.610Z,48.80
2019-06-01T16:52:11.646Z,48.60
2019-06-01T16:54:41.761Z,48.90
2019-06-01T16:57:12.536Z,49.30
2019-06-01T16:59:42.587Z,47.80
2019-06-01T17:02:12.613Z,47.70
2019-06-01T17:04:42.660Z,48.10
2019-06-01T17:07:12.698Z,46.90
2019-06-01T17:09:42.845Z,47.00
2019-06-01T17:12:12.938Z,47.60
2019-06-01T17:14:43.430Z,47.60
2019-06-01T17:17:13.511Z,48.10
2019-06-01T17:19:43.938Z,47.60
2019-06-01T17:22:14.050Z,47.40
2019-06-01T17:24:44.152Z,47.60
2019-06-01T17:27:14.605Z,47.70
2019-06-01T17:29:44.660Z,47.30
2019-06-01T17:32:23.820Z,47.40
2019-06-01T17:34:46.772Z,46.80
2019-06-01T17:37:16.885Z,46.50
2019-06-01T17:39:46.990Z,46.80
2019-06-01T17:42:17.396Z,46.80
2019-06-01T17:44:47.586Z,45.50
2019-06-01T17:47:17.826Z,44.90
2019-06-01T17:49:47.864Z,45.40
2019-06-01T17:52:18.032Z,46.00
2019-06-01T17:54:48.107Z,46.10
2019-06-01T17:57:18.562Z,46.30
2019-06-01T17:59:48.623Z,45.90
2019-06-01T18:02:19.067Z,46.60
2019-06-01T18:04:49.215Z,47.80
2019-06-01T18:07:19.342Z,48.20
2019-06-01T18:09:49.433Z,46.70
2019-06-01T18:12:20.104Z,47.60
2019-06-01T18:14:50.255Z,48.20
2019-06-01T18:17:20.772Z,48.40
2019-06-01T18:19:50.873Z,47.20
2019-06-01T18:22:21.634Z,47.70
2019-06-01T18:24:51.887Z,46.80
2019-06-01T18:27:21.946Z,47.20
2019-06-01T18:29:52.497Z,48.00
2019-06-01T18:32:22.521Z,48.30
2019-06-01T18:34:53.674Z,47.10
2019-06-01T18:37:24.105Z,47.40
2019-06-01T18:39:54.347Z,47.30
2019-06-01T18:42:29.038Z,46.80
2019-06-01T18:44:59.289Z,46.80
2019-06-01T18:47:32.499Z,47.10
2019-06-01T18:50:01.065Z,47.10
2019-06-01T18:52:31.312Z,47.00
2019-06-01T18:55:01.798Z,47.30
2019-06-01T18:57:32.201Z,47.40
2019-06-01T19:00:02.604Z,48.10
2019-06-01T19:02:32.725Z,49.40
2019-06-01T19:05:02.863Z,49.50
2019-06-01T19:07:33.393Z,50.80
2019-06-01T19:10:03.668Z,51.20
2019-06-01T19:15:56.995Z,51.70
2019-06-01T19:18:27.415Z,52.50
2019-06-01T19:20:57.853Z,52.50
2019-06-01T19:23:28.707Z,52.90
2019-06-01T19:26:00.402Z,52.70
2019-06-01T19:28:30.483Z,53.20
2019-06-01T19:31:00.551Z,53.30
2019-06-01T19:33:32.134Z,52.70
2019-06-01T19:36:03.857Z,52.40
2019-06-01T19:38:34.881Z,53.10
2019-06-01T19:41:05.062Z,53.20
2019-06-01T19:43:35.561Z,53.00
2019-06-01T19:46:06.078Z,52.70
2019-06-01T19:48:36.512Z,52.60
2019-06-01T19:51:06.855Z,52.90
2019-06-01T19:53:37.298Z,53.00
2019-06-01T19:56:07.311Z,52.70
2019-06-01T19:58:37.434Z,52.70
2019-06-01T20:01:07.507Z,53.00
2019-06-01T20:03:37.569Z,52.90
2019-06-01T20:06:07.986Z,52.70
2019-06-01T20:08:38.018Z,52.80
2019-06-01T20:11:08.047Z,52.50
2019-06-01T20:13:39.765Z,52.60
2019-06-01T20:16:10.659Z,52.60
2019-06-01T20:18:42.462Z,52.50
2019-06-01T20:21:13.779Z,52.80
2019-06-01T20:23:44.969Z,53.00
2019-06-01T20:26:15.501Z,53.20
2019-06-01T20:28:45.579Z,53.30
2019-06-01T20:31:16.045Z,53.30
2019-06-01T20:33:46.082Z,53.20
2019-06-01T20:36:16.216Z,53.20
2019-06-01T20:38:46.482Z,53.50
2019-06-01T20:41:17.011Z,53.60
2019-06-01T20:43:47.595Z,53.70
2019-06-01T20:46:18.759Z,53.70
2019-06-01T20:48:49.343Z,53.60
2019-06-01T20:51:19.411Z,53.90
2019-06-01T20:53:49.584Z,54.00
2019-06-01T20:57:05.083Z,54.00
2019-06-01T20:59:36.709Z,53.90
2019-06-01T21:02:06.851Z,54.30
2019-06-01T21:04:38.798Z,54.40
2019-06-01T21:07:09.298Z,54.40
2019-06-01T21:09:39.370Z,54.30
2019-06-01T21:12:11.986Z,54.50
2019-06-01T21:14:42.126Z,54.40
2019-06-01T21:17:12.178Z,54.40
2019-06-01T21:19:42.309Z,54.60
2019-06-01T21:22:22.704Z,54.50
2019-06-01T21:24:52.984Z,54.30
2019-06-01T21:27:23.371Z,54.50
2019-06-01T21:29:53.517Z,54.50
2019-06-01T21:32:23.667Z,54.70
2019-06-01T21:34:55.379Z,54.60
2019-06-01T21:37:26.617Z,54.60
2019-06-01T21:39:56.695Z,54.80
2019-06-01T21:42:26.751Z,55.00
2019-06-01T21:44:57.098Z,55.10
2019-06-01T21:47:27.227Z,55.00
2019-06-01T21:49:57.297Z,55.20
2019-06-01T21:52:27.852Z,55.20
2019-06-01T21:54:58.055Z,55.30
2019-06-01T21:57:28.114Z,55.40
2019-06-01T21:59:58.499Z,55.60
2019-06-01T22:02:28.959Z,55.70
2019-06-01T22:05:00.270Z,55.80
2019-06-01T22:07:30.758Z,55.70
2019-06-01T22:10:01.306Z,55.60
2019-06-01T22:12:31.706Z,55.70
2019-06-01T22:15:02.156Z,55.80
2019-06-01T22:17:32.609Z,55.70
2019-06-01T22:20:02.639Z,55.60
2019-06-01T22:22:32.722Z,55.60
2019-06-01T22:25:02.875Z,55.60
2019-06-01T22:27:32.974Z,55.70
2019-06-01T22:30:03.095Z,55.70
2019-06-01T22:32:33.760Z,55.80
2019-06-01T22:35:05.012Z,55.80
2019-06-01T22:37:35.612Z,55.90
2019-06-01T22:40:06.295Z,55.90
2019-06-01T22:42:36.782Z,55.90
2019-06-01T22:45:08.148Z,56.00
2019-06-01T22:47:38.640Z,56.10
2019-06-01T22:50:09.643Z,56.10
2019-06-01T22:52:40.181Z,56.20
2019-06-01T22:55:10.815Z,56.20
2019-06-01T22:57:43.232Z,56.10
2019-06-01T23:00:14.466Z,56.30
2019-06-01T23:02:44.594Z,56.20
2019-06-01T23:05:15.074Z,56.40
2019-06-01T23:07:45.194Z,56.30
2019-06-01T23:10:15.858Z,56.40
2019-06-01T23:12:45.968Z,56.50
2019-06-01T23:15:16.081Z,56.60
2019-06-01T23:17:46.501Z,56.70
2019-06-01T23:20:16.798Z,56.50
2019-06-01T23:22:49.290Z,56.70
2019-06-01T23:25:19.332Z,56.80
2019-06-01T23:27:49.363Z,56.70
2019-06-01T23:30:19.410Z,56.70
2019-06-01T23:32:49.472Z,56.90
2019-06-01T23:35:19.438Z,56.90
2019-06-01T23:37:49.572Z,56.90
2019-06-01T23:40:19.934Z,56.80
2019-06-01T23:42:49.983Z,56.90
2019-06-01T23:45:20.387Z,57.10
2019-06-01T23:47:51.612Z,56.90
2019-06-01T23:50:21.571Z,57.00
2019-06-01T23:52:51.678Z,57.00
2019-06-01T23:55:21.788Z,57.10
2019-06-01T23:57:51.829Z,57.10
